sensor_id;sensor_type;location;lat;lon;timestamp;P1;durP1;ratioP1;P2;durP2;ratioP2
54921;SDS011;40824;45.116;21.296;2022-12-29T00:01:52;10.13;;;7.65;;
54921;SDS011;40824;45.116;21.296;2022-12-29T00:04:18;12.15;;;7.38;;
54921;SDS011;40824;45.116;21.296;2022-12-29T00:06:44;12.48;;;7.40;;
54921;SDS011;40824;45.116;21.296;2022-12-29T00:09:11;11.75;;;7.03;;
54921;SDS011;40824;45.116;21.296;2022-12-29T00:11:37;9.07;;;6.85;;
54921;SDS011;40824;45.116;21.296;2022-12-29T00:14:03;11.75;;;6.97;;
54921;SDS011;40824;45.116;21.296;2022-12-29T00:16:48;10.15;;;6.00;;
54921;SDS011;40824;45.116;21.296;2022-12-29T00:19:14;10.95;;;6.25;;
54921;SDS011;40824;45.116;21.296;2022-12-29T00:21:59;11.13;;;6.95;;
54921;SDS011;40824;45.116;21.296;2022-12-29T00:24:44;10.25;;;6.35;;
54921;SDS011;40824;45.116;21.296;2022-12-29T00:27:29;13.05;;;6.18;;
54921;SDS011;40824;45.116;21.296;2022-12-29T00:30:18;12.77;;;6.72;;
54921;SDS011;40824;45.116;21.296;2022-12-29T00:33:10;11.27;;;6.72;;
54921;SDS011;40824;45.116;21.296;2022-12-29T00:35:56;10.63;;;7.22;;
54921;SDS011;40824;45.116;21.296;2022-12-29T00:38:23;10.82;;;7.70;;
54921;SDS011;40824;45.116;21.296;2022-12-29T00:41:08;10.43;;;6.50;;
54921;SDS011;40824;45.116;21.296;2022-12-29T00:43:53;13.73;;;6.78;;
54921;SDS011;40824;45.116;21.296;2022-12-29T00:46:32;9.85;;;6.10;;
54921;SDS011;40824;45.116;21.296;2022-12-29T00:48:58;11.65;;;6.65;;
54921;SDS011;40824;45.116;21.296;2022-12-29T00:51:42;12.52;;;7.25;;
54921;SDS011;40824;45.116;21.296;2022-12-29T00:54:08;12.50;;;7.22;;
54921;SDS011;40824;45.116;21.296;2022-12-29T00:56:35;11.13;;;7.30;;
54921;SDS011;40824;45.116;21.296;2022-12-29T00:59:01;15.35;;;7.03;;
54921;SDS011;40824;45.116;21.296;2022-12-29T01:01:27;12.70;;;7.07;;
54921;SDS011;40824;45.116;21.296;2022-12-29T01:03:54;12.48;;;6.15;;
54921;SDS011;40824;45.116;21.296;2022-12-29T01:06:20;10.18;;;7.00;;
54921;SDS011;40824;45.116;21.296;2022-12-29T01:08:46;12.95;;;6.10;;
54921;SDS011;40824;45.116;21.296;2022-12-29T01:11:32;8.93;;;6.07;;
54921;SDS011;40824;45.116;21.296;2022-12-29T01:13:58;11.93;;;6.50;;
54921;SDS011;40824;45.116;21.296;2022-12-29T01:16:24;9.60;;;6.13;;
54921;SDS011;40824;45.116;21.296;2022-12-29T01:18:50;12.25;;;6.40;;
54921;SDS011;40824;45.116;21.296;2022-12-29T01:21:16;9.13;;;6.25;;
54921;SDS011;40824;45.116;21.296;2022-12-29T01:23:42;11.48;;;6.22;;
54921;SDS011;40824;45.116;21.296;2022-12-29T01:26:12;10.68;;;5.95;;
54921;SDS011;40824;45.116;21.296;2022-12-29T01:28:38;11.20;;;6.75;;
54921;SDS011;40824;45.116;21.296;2022-12-29T01:31:09;11.77;;;6.90;;
54921;SDS011;40824;45.116;21.296;2022-12-29T01:33:35;13.65;;;8.60;;
54921;SDS011;40824;45.116;21.296;2022-12-29T01:36:05;11.70;;;7.43;;
54921;SDS011;40824;45.116;21.296;2022-12-29T01:38:31;11.38;;;6.63;;
54921;SDS011;40824;45.116;21.296;2022-12-29T01:40:58;8.73;;;5.45;;
54921;SDS011;40824;45.116;21.296;2022-12-29T01:48:34;10.18;;;6.57;;
54921;SDS011;40824;45.116;21.296;2022-12-29T01:51:00;11.20;;;7.50;;
54921;SDS011;40824;45.116;21.296;2022-12-29T01:53:27;11.27;;;6.68;;
54921;SDS011;40824;45.116;21.296;2022-12-29T01:55:55;10.77;;;6.40;;
54921;SDS011;40824;45.116;21.296;2022-12-29T01:58:24;11.13;;;6.40;;
54921;SDS011;40824;45.116;21.296;2022-12-29T02:00:53;10.18;;;6.65;;
54921;SDS011;40824;45.116;21.296;2022-12-29T02:03:19;9.45;;;6.03;;
54921;SDS011;40824;45.116;21.296;2022-12-29T02:08:13;9.73;;;6.70;;
54921;SDS011;40824;45.116;21.296;2022-12-29T02:10:39;12.63;;;7.57;;
54921;SDS011;40824;45.116;21.296;2022-12-29T02:13:06;13.77;;;7.65;;
54921;SDS011;40824;45.116;21.296;2022-12-29T02:15:38;9.75;;;6.40;;
54921;SDS011;40824;45.116;21.296;2022-12-29T02:31:13;11.07;;;6.80;;
54921;SDS011;40824;45.116;21.296;2022-12-29T02:36:13;11.38;;;6.25;;
54921;SDS011;40824;45.116;21.296;2022-12-29T02:38:49;11.75;;;6.75;;
54921;SDS011;40824;45.116;21.296;2022-12-29T02:43:51;12.20;;;6.30;;
54921;SDS011;40824;45.116;21.296;2022-12-29T02:46:23;10.82;;;6.28;;
54921;SDS011;40824;45.116;21.296;2022-12-29T02:49:00;9.25;;;5.93;;
54921;SDS011;40824;45.116;21.296;2022-12-29T02:51:29;12.13;;;6.40;;
54921;SDS011;40824;45.116;21.296;2022-12-29T02:53:57;10.75;;;6.45;;
54921;SDS011;40824;45.116;21.296;2022-12-29T02:56:42;12.73;;;6.90;;
54921;SDS011;40824;45.116;21.296;2022-12-29T02:59:08;9.38;;;5.85;;
54921;SDS011;40824;45.116;21.296;2022-12-29T03:04:47;10.65;;;6.28;;
54921;SDS011;40824;45.116;21.296;2022-12-29T03:12:35;11.73;;;6.20;;
54921;SDS011;40824;45.116;21.296;2022-12-29T03:15:34;9.85;;;6.78;;
54921;SDS011;40824;45.116;21.296;2022-12-29T03:23:13;14.68;;;6.80;;
54921;SDS011;40824;45.116;21.296;2022-12-29T03:25:40;16.15;;;7.50;;
54921;SDS011;40824;45.116;21.296;2022-12-29T03:28:10;11.52;;;6.80;;
54921;SDS011;40824;45.116;21.296;2022-12-29T03:30:37;13.77;;;6.30;;
54921;SDS011;40824;45.116;21.296;2022-12-29T03:33:10;13.15;;;6.20;;
54921;SDS011;40824;45.116;21.296;2022-12-29T03:35:37;13.55;;;6.20;;
54921;SDS011;40824;45.116;21.296;2022-12-29T03:40:33;13.82;;;6.75;;
54921;SDS011;40824;45.116;21.296;2022-12-29T03:43:00;15.20;;;6.35;;
54921;SDS011;40824;45.116;21.296;2022-12-29T03:45:27;11.95;;;6.15;;
54921;SDS011;40824;45.116;21.296;2022-12-29T03:47:53;13.07;;;6.80;;
54921;SDS011;40824;45.116;21.296;2022-12-29T03:50:19;10.05;;;5.90;;
54921;SDS011;40824;45.116;21.296;2022-12-29T03:52:45;10.18;;;5.68;;
54921;SDS011;40824;45.116;21.296;2022-12-29T03:55:11;9.45;;;5.55;;
54921;SDS011;40824;45.116;21.296;2022-12-29T03:57:37;9.80;;;5.95;;
54921;SDS011;40824;45.116;21.296;2022-12-29T04:00:04;11.50;;;5.47;;
54921;SDS011;40824;45.116;21.296;2022-12-29T04:02:31;12.68;;;6.35;;
54921;SDS011;40824;45.116;21.296;2022-12-29T04:04:57;10.15;;;6.05;;
54921;SDS011;40824;45.116;21.296;2022-12-29T04:07:23;13.52;;;6.45;;
54921;SDS011;40824;45.116;21.296;2022-12-29T04:09:49;13.38;;;6.25;;
54921;SDS011;40824;45.116;21.296;2022-12-29T04:12:16;9.80;;;6.00;;
54921;SDS011;40824;45.116;21.296;2022-12-29T04:14:42;10.18;;;6.35;;
54921;SDS011;40824;45.116;21.296;2022-12-29T04:17:08;10.73;;;6.30;;
54921;SDS011;40824;45.116;21.296;2022-12-29T04:19:34;10.25;;;5.57;;
54921;SDS011;40824;45.116;21.296;2022-12-29T04:22:00;11.13;;;6.32;;
54921;SDS011;40824;45.116;21.296;2022-12-29T04:24:26;10.93;;;5.82;;
54921;SDS011;40824;45.116;21.296;2022-12-29T04:26:52;9.10;;;5.57;;
54921;SDS011;40824;45.116;21.296;2022-12-29T04:29:18;12.38;;;6.78;;
54921;SDS011;40824;45.116;21.296;2022-12-29T04:31:44;11.45;;;6.05;;
54921;SDS011;40824;45.116;21.296;2022-12-29T04:34:10;10.98;;;6.10;;
54921;SDS011;40824;45.116;21.296;2022-12-29T04:36:36;11.60;;;5.63;;
54921;SDS011;40824;45.116;21.296;2022-12-29T04:39:03;10.48;;;6.25;;
54921;SDS011;40824;45.116;21.296;2022-12-29T04:41:31;10.88;;;5.93;;
54921;SDS011;40824;45.116;21.296;2022-12-29T04:43:58;12.10;;;6.22;;
54921;SDS011;40824;45.116;21.296;2022-12-29T04:46:24;8.70;;;5.95;;
54921;SDS011;40824;45.116;21.296;2022-12-29T04:48:50;10.45;;;5.97;;
54921;SDS011;40824;45.116;21.296;2022-12-29T04:51:16;8.85;;;5.95;;
54921;SDS011;40824;45.116;21.296;2022-12-29T04:53:42;12.25;;;6.45;;
54921;SDS011;40824;45.116;21.296;2022-12-29T04:56:08;10.80;;;6.30;;
54921;SDS011;40824;45.116;21.296;2022-12-29T04:58:34;10.48;;;5.82;;
54921;SDS011;40824;45.116;21.296;2022-12-29T05:01:01;10.73;;;6.70;;
54921;SDS011;40824;45.116;21.296;2022-12-29T05:03:27;10.73;;;6.35;;
54921;SDS011;40824;45.116;21.296;2022-12-29T05:05:53;10.55;;;6.18;;
54921;SDS011;40824;45.116;21.296;2022-12-29T05:08:20;10.07;;;5.82;;
54921;SDS011;40824;45.116;21.296;2022-12-29T05:10:47;10.18;;;6.30;;
54921;SDS011;40824;45.116;21.296;2022-12-29T05:13:13;10.38;;;6.18;;
54921;SDS011;40824;45.116;21.296;2022-12-29T05:15:39;8.30;;;5.45;;
54921;SDS011;40824;45.116;21.296;2022-12-29T05:18:05;12.38;;;6.45;;
54921;SDS011;40824;45.116;21.296;2022-12-29T05:20:31;9.07;;;6.20;;
54921;SDS011;40824;45.116;21.296;2022-12-29T05:22:57;10.18;;;7.15;;
54921;SDS011;40824;45.116;21.296;2022-12-29T05:25:23;11.45;;;6.35;;
54921;SDS011;40824;45.116;21.296;2022-12-29T05:27:49;9.15;;;5.80;;
54921;SDS011;40824;45.116;21.296;2022-12-29T05:30:15;11.60;;;5.90;;
54921;SDS011;40824;45.116;21.296;2022-12-29T05:32:41;10.30;;;6.25;;
54921;SDS011;40824;45.116;21.296;2022-12-29T05:35:07;9.68;;;6.03;;
54921;SDS011;40824;45.116;21.296;2022-12-29T05:37:34;10.48;;;5.55;;
54921;SDS011;40824;45.116;21.296;2022-12-29T05:40:00;10.30;;;6.22;;
54921;SDS011;40824;45.116;21.296;2022-12-29T05:42:26;8.13;;;5.72;;
54921;SDS011;40824;45.116;21.296;2022-12-29T05:44:52;8.98;;;6.43;;
54921;SDS011;40824;45.116;21.296;2022-12-29T05:47:19;8.55;;;6.60;;
54921;SDS011;40824;45.116;21.296;2022-12-29T05:49:45;9.95;;;6.00;;
54921;SDS011;40824;45.116;21.296;2022-12-29T05:52:11;11.02;;;6.00;;
54921;SDS011;40824;45.116;21.296;2022-12-29T05:54:37;14.13;;;6.38;;
54921;SDS011;40824;45.116;21.296;2022-12-29T05:57:03;10.43;;;6.20;;
54921;SDS011;40824;45.116;21.296;2022-12-29T05:59:29;9.80;;;6.20;;
54921;SDS011;40824;45.116;21.296;2022-12-29T06:01:55;11.13;;;6.90;;
54921;SDS011;40824;45.116;21.296;2022-12-29T06:04:23;11.23;;;6.13;;
54921;SDS011;40824;45.116;21.296;2022-12-29T06:06:50;9.70;;;6.80;;
54921;SDS011;40824;45.116;21.296;2022-12-29T06:09:16;8.68;;;6.00;;
54921;SDS011;40824;45.116;21.296;2022-12-29T06:11:42;11.60;;;6.03;;
54921;SDS011;40824;45.116;21.296;2022-12-29T06:14:08;14.18;;;6.38;;
54921;SDS011;40824;45.116;21.296;2022-12-29T06:16:34;11.77;;;6.47;;
54921;SDS011;40824;45.116;21.296;2022-12-29T06:19:01;10.57;;;6.55;;
54921;SDS011;40824;45.116;21.296;2022-12-29T06:21:27;11.43;;;6.72;;
54921;SDS011;40824;45.116;21.296;2022-12-29T06:23:53;8.63;;;5.97;;
54921;SDS011;40824;45.116;21.296;2022-12-29T06:26:19;11.30;;;6.18;;
54921;SDS011;40824;45.116;21.296;2022-12-29T06:28:45;11.20;;;6.35;;
54921;SDS011;40824;45.116;21.296;2022-12-29T06:31:11;13.52;;;7.30;;
54921;SDS011;40824;45.116;21.296;2022-12-29T06:33:37;11.30;;;6.30;;
54921;SDS011;40824;45.116;21.296;2022-12-29T06:36:04;10.25;;;6.13;;
54921;SDS011;40824;45.116;21.296;2022-12-29T06:38:30;11.57;;;6.75;;
54921;SDS011;40824;45.116;21.296;2022-12-29T06:40:56;10.43;;;6.20;;
54921;SDS011;40824;45.116;21.296;2022-12-29T06:43:22;9.88;;;6.40;;
54921;SDS011;40824;45.116;21.296;2022-12-29T06:45:48;9.15;;;6.25;;
54921;SDS011;40824;45.116;21.296;2022-12-29T06:48:14;11.43;;;6.65;;
54921;SDS011;40824;45.116;21.296;2022-12-29T06:50:40;11.48;;;6.35;;
54921;SDS011;40824;45.116;21.296;2022-12-29T06:53:06;9.23;;;6.13;;
54921;SDS011;40824;45.116;21.296;2022-12-29T06:55:32;10.50;;;6.30;;
54921;SDS011;40824;45.116;21.296;2022-12-29T06:57:59;9.50;;;6.55;;
54921;SDS011;40824;45.116;21.296;2022-12-29T07:00:26;11.73;;;6.50;;
54921;SDS011;40824;45.116;21.296;2022-12-29T07:02:52;10.60;;;6.22;;
54921;SDS011;40824;45.116;21.296;2022-12-29T07:05:20;10.27;;;6.15;;
54921;SDS011;40824;45.116;21.296;2022-12-29T07:07:46;10.63;;;6.40;;
54921;SDS011;40824;45.116;21.296;2022-12-29T07:10:15;13.15;;;6.40;;
54921;SDS011;40824;45.116;21.296;2022-12-29T07:12:46;8.75;;;6.35;;
54921;SDS011;40824;45.116;21.296;2022-12-29T07:15:12;9.85;;;6.82;;
54921;SDS011;40824;45.116;21.296;2022-12-29T07:17:38;9.77;;;6.63;;
54921;SDS011;40824;45.116;21.296;2022-12-29T07:20:04;11.30;;;6.55;;
54921;SDS011;40824;45.116;21.296;2022-12-29T07:22:31;11.77;;;7.40;;
54921;SDS011;40824;45.116;21.296;2022-12-29T07:24:57;13.52;;;7.15;;
54921;SDS011;40824;45.116;21.296;2022-12-29T07:27:23;15.00;;;7.75;;
54921;SDS011;40824;45.116;21.296;2022-12-29T07:29:49;10.35;;;6.60;;
54921;SDS011;40824;45.116;21.296;2022-12-29T07:32:15;10.02;;;6.65;;
54921;SDS011;40824;45.116;21.296;2022-12-29T07:34:41;9.60;;;6.05;;
54921;SDS011;40824;45.116;21.296;2022-12-29T07:37:09;11.50;;;7.15;;
54921;SDS011;40824;45.116;21.296;2022-12-29T07:39:36;15.02;;;8.07;;
54921;SDS011;40824;45.116;21.296;2022-12-29T07:42:02;12.57;;;7.68;;
54921;SDS011;40824;45.116;21.296;2022-12-29T07:44:28;10.32;;;7.20;;
54921;SDS011;40824;45.116;21.296;2022-12-29T07:46:54;11.93;;;6.25;;
54921;SDS011;40824;45.116;21.296;2022-12-29T07:49:20;9.98;;;6.25;;
54921;SDS011;40824;45.116;21.296;2022-12-29T07:51:46;10.55;;;6.57;;
54921;SDS011;40824;45.116;21.296;2022-12-29T07:54:12;9.82;;;5.95;;
54921;SDS011;40824;45.116;21.296;2022-12-29T07:56:38;12.20;;;6.20;;
54921;SDS011;40824;45.116;21.296;2022-12-29T07:59:04;14.38;;;7.43;;
54921;SDS011;40824;45.116;21.296;2022-12-29T08:01:30;12.60;;;6.88;;
54921;SDS011;40824;45.116;21.296;2022-12-29T08:03:56;11.82;;;6.65;;
54921;SDS011;40824;45.116;21.296;2022-12-29T08:06:23;10.50;;;6.88;;
54921;SDS011;40824;45.116;21.296;2022-12-29T08:08:55;12.18;;;8.20;;
54921;SDS011;40824;45.116;21.296;2022-12-29T08:11:22;14.98;;;7.38;;
54921;SDS011;40824;45.116;21.296;2022-12-29T08:13:48;12.77;;;8.48;;
54921;SDS011;40824;45.116;21.296;2022-12-29T08:16:14;14.18;;;9.50;;
54921;SDS011;40824;45.116;21.296;2022-12-29T08:18:40;11.02;;;7.60;;
54921;SDS011;40824;45.116;21.296;2022-12-29T08:21:09;11.70;;;8.70;;
54921;SDS011;40824;45.116;21.296;2022-12-29T08:23:39;11.88;;;7.15;;
54921;SDS011;40824;45.116;21.296;2022-12-29T08:26:05;9.90;;;7.38;;
54921;SDS011;40824;45.116;21.296;2022-12-29T08:28:31;15.25;;;11.45;;
54921;SDS011;40824;45.116;21.296;2022-12-29T08:30:59;11.18;;;8.02;;
54921;SDS011;40824;45.116;21.296;2022-12-29T08:33:25;11.45;;;8.85;;
54921;SDS011;40824;45.116;21.296;2022-12-29T08:35:51;12.18;;;7.68;;
54921;SDS011;40824;45.116;21.296;2022-12-29T08:38:17;12.23;;;7.55;;
54921;SDS011;40824;45.116;21.296;2022-12-29T08:40:43;11.38;;;7.57;;
54921;SDS011;40824;45.116;21.296;2022-12-29T08:43:10;10.55;;;7.70;;
54921;SDS011;40824;45.116;21.296;2022-12-29T08:45:36;11.05;;;6.43;;
54921;SDS011;40824;45.116;21.296;2022-12-29T08:48:02;12.75;;;6.85;;
54921;SDS011;40824;45.116;21.296;2022-12-29T08:50:28;9.90;;;6.65;;
54921;SDS011;40824;45.116;21.296;2022-12-29T08:52:54;10.52;;;6.47;;
54921;SDS011;40824;45.116;21.296;2022-12-29T08:55:20;9.40;;;5.80;;
54921;SDS011;40824;45.116;21.296;2022-12-29T08:57:46;9.55;;;6.28;;
54921;SDS011;40824;45.116;21.296;2022-12-29T09:00:13;10.85;;;6.82;;
54921;SDS011;40824;45.116;21.296;2022-12-29T09:02:40;9.98;;;7.07;;
54921;SDS011;40824;45.116;21.296;2022-12-29T09:05:06;11.27;;;7.85;;
54921;SDS011;40824;45.116;21.296;2022-12-29T09:07:32;12.18;;;7.82;;
54921;SDS011;40824;45.116;21.296;2022-12-29T09:09:58;9.38;;;6.97;;
54921;SDS011;40824;45.116;21.296;2022-12-29T09:12:24;12.85;;;7.55;;
54921;SDS011;40824;45.116;21.296;2022-12-29T09:14:50;9.10;;;6.40;;
54921;SDS011;40824;45.116;21.296;2022-12-29T09:17:16;10.70;;;6.95;;
54921;SDS011;40824;45.116;21.296;2022-12-29T09:20:01;8.40;;;6.93;;
54921;SDS011;40824;45.116;21.296;2022-12-29T09:22:28;11.60;;;6.82;;
54921;SDS011;40824;45.116;21.296;2022-12-29T09:24:54;11.05;;;7.18;;
54921;SDS011;40824;45.116;21.296;2022-12-29T09:27:20;8.15;;;6.30;;
54921;SDS011;40824;45.116;21.296;2022-12-29T09:29:46;11.25;;;7.53;;
54921;SDS011;40824;45.116;21.296;2022-12-29T09:32:12;10.63;;;7.97;;
54921;SDS011;40824;45.116;21.296;2022-12-29T09:34:38;10.45;;;6.88;;
54921;SDS011;40824;45.116;21.296;2022-12-29T09:37:04;8.40;;;6.47;;
54921;SDS011;40824;45.116;21.296;2022-12-29T09:39:30;9.60;;;7.70;;
54921;SDS011;40824;45.116;21.296;2022-12-29T09:42:01;12.80;;;7.68;;
54921;SDS011;40824;45.116;21.296;2022-12-29T09:47:09;11.35;;;8.00;;
54921;SDS011;40824;45.116;21.296;2022-12-29T09:49:42;11.80;;;8.63;;
54921;SDS011;40824;45.116;21.296;2022-12-29T09:52:15;11.05;;;7.95;;
54921;SDS011;40824;45.116;21.296;2022-12-29T09:54:51;9.93;;;7.25;;
54921;SDS011;40824;45.116;21.296;2022-12-29T09:57:21;10.95;;;8.10;;
54921;SDS011;40824;45.116;21.296;2022-12-29T09:59:50;11.20;;;7.60;;
54921;SDS011;40824;45.116;21.296;2022-12-29T10:05:02;11.20;;;8.43;;
54921;SDS011;40824;45.116;21.296;2022-12-29T10:15:44;11.23;;;9.02;;
54921;SDS011;40824;45.116;21.296;2022-12-29T10:25:41;14.25;;;8.52;;
54921;SDS011;40824;45.116;21.296;2022-12-29T10:30:43;10.10;;;8.95;;
54921;SDS011;40824;45.116;21.296;2022-12-29T10:33:11;13.40;;;8.85;;
54921;SDS011;40824;45.116;21.296;2022-12-29T10:35:38;13.70;;;9.10;;
54921;SDS011;40824;45.116;21.296;2022-12-29T10:38:25;10.23;;;8.90;;
54921;SDS011;40824;45.116;21.296;2022-12-29T10:43:47;13.23;;;9.88;;
54921;SDS011;40824;45.116;21.296;2022-12-29T10:46:18;12.68;;;9.70;;
54921;SDS011;40824;45.116;21.296;2022-12-29T10:48:45;14.85;;;9.00;;
54921;SDS011;40824;45.116;21.296;2022-12-29T10:51:16;12.32;;;9.07;;
54921;SDS011;40824;45.116;21.296;2022-12-29T10:53:49;10.77;;;8.95;;
54921;SDS011;40824;45.116;21.296;2022-12-29T11:06:43;12.02;;;9.20;;
54921;SDS011;40824;45.116;21.296;2022-12-29T11:11:36;15.38;;;8.63;;
54921;SDS011;40824;45.116;21.296;2022-12-29T11:14:17;14.60;;;8.82;;
54921;SDS011;40824;45.116;21.296;2022-12-29T11:16:44;10.95;;;8.68;;
54921;SDS011;40824;45.116;21.296;2022-12-29T11:19:20;11.35;;;8.48;;
54921;SDS011;40824;45.116;21.296;2022-12-29T11:21:46;12.18;;;8.40;;
54921;SDS011;40824;45.116;21.296;2022-12-29T11:24:22;10.25;;;8.85;;
54921;SDS011;40824;45.116;21.296;2022-12-29T11:26:50;11.77;;;8.98;;
54921;SDS011;40824;45.116;21.296;2022-12-29T11:29:22;13.18;;;9.50;;
54921;SDS011;40824;45.116;21.296;2022-12-29T11:31:50;13.57;;;9.80;;
54921;SDS011;40824;45.116;21.296;2022-12-29T11:36:46;12.15;;;9.55;;
54921;SDS011;40824;45.116;21.296;2022-12-29T11:39:24;13.68;;;9.95;;
54921;SDS011;40824;45.116;21.296;2022-12-29T11:41:52;13.55;;;9.65;;
54921;SDS011;40824;45.116;21.296;2022-12-29T11:44:18;12.95;;;10.82;;
54921;SDS011;40824;45.116;21.296;2022-12-29T11:46:45;15.55;;;10.77;;
54921;SDS011;40824;45.116;21.296;2022-12-29T11:49:19;15.02;;;10.85;;
54921;SDS011;40824;45.116;21.296;2022-12-29T11:54:18;13.05;;;9.95;;
54921;SDS011;40824;45.116;21.296;2022-12-29T11:56:45;11.93;;;9.90;;
54921;SDS011;40824;45.116;21.296;2022-12-29T12:01:53;13.45;;;9.50;;
54921;SDS011;40824;45.116;21.296;2022-12-29T12:04:21;14.15;;;10.63;;
54921;SDS011;40824;45.116;21.296;2022-12-29T12:09:28;13.88;;;10.73;;
54921;SDS011;40824;45.116;21.296;2022-12-29T12:11:55;13.60;;;10.00;;
54921;SDS011;40824;45.116;21.296;2022-12-29T12:14:22;16.50;;;11.27;;
54921;SDS011;40824;45.116;21.296;2022-12-29T12:16:50;13.93;;;10.40;;
54921;SDS011;40824;45.116;21.296;2022-12-29T12:19:32;15.48;;;10.27;;
54921;SDS011;40824;45.116;21.296;2022-12-29T12:22:02;18.08;;;11.93;;
54921;SDS011;40824;45.116;21.296;2022-12-29T12:32:01;17.88;;;13.32;;
54921;SDS011;40824;45.116;21.296;2022-12-29T12:34:37;15.05;;;11.35;;
54921;SDS011;40824;45.116;21.296;2022-12-29T12:47:32;17.50;;;12.30;;
54921;SDS011;40824;45.116;21.296;2022-12-29T12:50:14;18.77;;;13.05;;
54921;SDS011;40824;45.116;21.296;2022-12-29T12:55:33;16.30;;;11.18;;
54921;SDS011;40824;45.116;21.296;2022-12-29T13:00:27;19.27;;;12.80;;
54921;SDS011;40824;45.116;21.296;2022-12-29T13:10:31;19.17;;;12.98;;
54921;SDS011;40824;45.116;21.296;2022-12-29T13:13:17;19.10;;;13.18;;
54921;SDS011;40824;45.116;21.296;2022-12-29T13:18:45;27.60;;;17.05;;
54921;SDS011;40824;45.116;21.296;2022-12-29T13:21:24;22.63;;;16.00;;
54921;SDS011;40824;45.116;21.296;2022-12-29T13:26:24;16.00;;;12.02;;
54921;SDS011;40824;45.116;21.296;2022-12-29T13:31:43;17.80;;;13.30;;
54921;SDS011;40824;45.116;21.296;2022-12-29T13:36:53;18.75;;;14.38;;
54921;SDS011;40824;45.116;21.296;2022-12-29T13:39:24;19.40;;;13.85;;
54921;SDS011;40824;45.116;21.296;2022-12-29T13:41:53;17.80;;;12.80;;
54921;SDS011;40824;45.116;21.296;2022-12-29T13:44:30;17.00;;;12.98;;
54921;SDS011;40824;45.116;21.296;2022-12-29T13:46:58;20.63;;;14.75;;
54921;SDS011;40824;45.116;21.296;2022-12-29T13:49:25;19.42;;;13.00;;
54921;SDS011;40824;45.116;21.296;2022-12-29T13:54:43;18.67;;;13.15;;
54921;SDS011;40824;45.116;21.296;2022-12-29T14:07:46;15.15;;;11.85;;
54921;SDS011;40824;45.116;21.296;2022-12-29T14:13:05;16.40;;;10.90;;
54921;SDS011;40824;45.116;21.296;2022-12-29T14:15:32;14.48;;;10.88;;
54921;SDS011;40824;45.116;21.296;2022-12-29T14:20:37;14.82;;;10.00;;
54921;SDS011;40824;45.116;21.296;2022-12-29T14:28:24;29.02;;;20.13;;
54921;SDS011;40824;45.116;21.296;2022-12-29T14:30:52;29.80;;;21.33;;
54921;SDS011;40824;45.116;21.296;2022-12-29T14:33:19;28.20;;;20.77;;
54921;SDS011;40824;45.116;21.296;2022-12-29T14:35:45;23.30;;;14.43;;
54921;SDS011;40824;45.116;21.296;2022-12-29T14:38:17;19.67;;;12.63;;
54921;SDS011;40824;45.116;21.296;2022-12-29T14:40:44;21.80;;;14.93;;
54921;SDS011;40824;45.116;21.296;2022-12-29T14:43:17;24.92;;;15.55;;
54921;SDS011;40824;45.116;21.296;2022-12-29T14:45:45;17.45;;;12.77;;
54921;SDS011;40824;45.116;21.296;2022-12-29T14:50:49;17.70;;;10.55;;
54921;SDS011;40824;45.116;21.296;2022-12-29T14:56:00;21.00;;;13.93;;
54921;SDS011;40824;45.116;21.296;2022-12-29T14:58:31;24.08;;;15.10;;
54921;SDS011;40824;45.116;21.296;2022-12-29T15:00:58;24.95;;;16.02;;
54921;SDS011;40824;45.116;21.296;2022-12-29T15:03:38;26.40;;;17.25;;
54921;SDS011;40824;45.116;21.296;2022-12-29T15:06:10;25.70;;;17.17;;
54921;SDS011;40824;45.116;21.296;2022-12-29T15:08:37;20.92;;;14.63;;
54921;SDS011;40824;45.116;21.296;2022-12-29T15:11:12;22.77;;;15.15;;
54921;SDS011;40824;45.116;21.296;2022-12-29T15:13:41;18.98;;;13.35;;
54921;SDS011;40824;45.116;21.296;2022-12-29T15:16:21;25.58;;;16.75;;
54921;SDS011;40824;45.116;21.296;2022-12-29T15:18:48;22.55;;;16.55;;
54921;SDS011;40824;45.116;21.296;2022-12-29T15:21:14;24.33;;;16.08;;
54921;SDS011;40824;45.116;21.296;2022-12-29T15:23:42;21.75;;;14.90;;
54921;SDS011;40824;45.116;21.296;2022-12-29T15:26:08;17.75;;;12.30;;
54921;SDS011;40824;45.116;21.296;2022-12-29T15:28:38;20.25;;;13.00;;
54921;SDS011;40824;45.116;21.296;2022-12-29T15:31:10;20.33;;;13.57;;
54921;SDS011;40824;45.116;21.296;2022-12-29T15:33:37;17.00;;;12.25;;
54921;SDS011;40824;45.116;21.296;2022-12-29T15:36:08;23.42;;;15.68;;
54921;SDS011;40824;45.116;21.296;2022-12-29T15:38:35;21.17;;;14.45;;
54921;SDS011;40824;45.116;21.296;2022-12-29T15:41:22;22.30;;;16.02;;
54921;SDS011;40824;45.116;21.296;2022-12-29T15:44:04;19.33;;;14.00;;
54921;SDS011;40824;45.116;21.296;2022-12-29T15:46:31;21.80;;;14.40;;
54921;SDS011;40824;45.116;21.296;2022-12-29T15:48:57;19.38;;;12.32;;
54921;SDS011;40824;45.116;21.296;2022-12-29T15:51:31;22.80;;;14.32;;
54921;SDS011;40824;45.116;21.296;2022-12-29T15:53:59;14.68;;;10.40;;
54921;SDS011;40824;45.116;21.296;2022-12-29T15:56:28;16.80;;;11.60;;
54921;SDS011;40824;45.116;21.296;2022-12-29T15:58:54;20.92;;;13.63;;
54921;SDS011;40824;45.116;21.296;2022-12-29T16:01:25;26.65;;;15.45;;
54921;SDS011;40824;45.116;21.296;2022-12-29T16:03:52;22.65;;;14.02;;
54921;SDS011;40824;45.116;21.296;2022-12-29T16:06:33;21.27;;;13.57;;
54921;SDS011;40824;45.116;21.296;2022-12-29T16:13:51;18.35;;;12.10;;
54921;SDS011;40824;45.116;21.296;2022-12-29T16:16:22;18.75;;;12.02;;
54921;SDS011;40824;45.116;21.296;2022-12-29T16:18:50;20.55;;;12.60;;
54921;SDS011;40824;45.116;21.296;2022-12-29T16:21:20;23.08;;;14.40;;
54921;SDS011;40824;45.116;21.296;2022-12-29T16:23:49;21.25;;;14.43;;
54921;SDS011;40824;45.116;21.296;2022-12-29T16:26:19;55.13;;;32.50;;
54921;SDS011;40824;45.116;21.296;2022-12-29T16:28:50;44.75;;;29.10;;
54921;SDS011;40824;45.116;21.296;2022-12-29T16:31:24;22.50;;;16.48;;
54921;SDS011;40824;45.116;21.296;2022-12-29T16:33:52;21.63;;;15.63;;
54921;SDS011;40824;45.116;21.296;2022-12-29T16:36:28;34.17;;;22.00;;
54921;SDS011;40824;45.116;21.296;2022-12-29T16:41:57;27.67;;;17.63;;
54921;SDS011;40824;45.116;21.296;2022-12-29T16:44:31;18.63;;;12.90;;
54921;SDS011;40824;45.116;21.296;2022-12-29T16:49:50;19.98;;;13.00;;
54921;SDS011;40824;45.116;21.296;2022-12-29T16:52:21;17.88;;;12.95;;
54921;SDS011;40824;45.116;21.296;2022-12-29T16:54:51;23.42;;;14.00;;
54921;SDS011;40824;45.116;21.296;2022-12-29T16:57:30;24.77;;;17.65;;
54921;SDS011;40824;45.116;21.296;2022-12-29T16:59:59;17.63;;;14.13;;
54921;SDS011;40824;45.116;21.296;2022-12-29T17:02:26;24.65;;;18.08;;
54921;SDS011;40824;45.116;21.296;2022-12-29T17:04:53;25.27;;;17.63;;
54921;SDS011;40824;45.116;21.296;2022-12-29T17:07:20;28.30;;;19.13;;
54921;SDS011;40824;45.116;21.296;2022-12-29T17:09:47;30.15;;;20.58;;
54921;SDS011;40824;45.116;21.296;2022-12-29T17:12:20;26.48;;;18.42;;
54921;SDS011;40824;45.116;21.296;2022-12-29T17:14:47;20.10;;;15.00;;
54921;SDS011;40824;45.116;21.296;2022-12-29T17:17:32;20.27;;;13.63;;
54921;SDS011;40824;45.116;21.296;2022-12-29T17:20:08;21.63;;;14.10;;
54921;SDS011;40824;45.116;21.296;2022-12-29T17:22:39;17.95;;;12.82;;
54921;SDS011;40824;45.116;21.296;2022-12-29T17:25:05;20.67;;;15.05;;